Indianapolis, IN (46256)

9:19 PM EDT on April 18, 2015 (GMT -0400)
APRSWXNET | | Change Station
CLOSE
Current Station
Personal Weather Station
Location: Indianapolis, IN
Elevation: 715 ft
Nearby Weather Stations

Elev 715 ft 39.91 °N, 85.99 °W | Updated 32 minutes ago

Partly Cloudy
Partly Cloudy
70 °F
Feels Like 70 °F
N
0
Wind Variable Wind from ESE
Gusts 0.0 mph

Today
High -- | Low -- °F
--% Chance of Precip.
Yesterday
High -- | Low -- °F
Precip. -- in
7:02 AM 8:25 PM
New Moon, 0% visible
Pressure 29.94 in
Visibility 10.0 miles
Clouds Few 15000 ft
Mostly Cloudy 25000 ft
Dew Point 52 °F
Humidity 53%
Rainfall in
Snow Depth Not available.
UV 0 out of 12
Pollen 11.40 out of 12
Air Quality Not available.
Flu Activity Local Activity
METAR KIND 190054Z 11007KT 10SM FEW150 BKN250 20/08 A2995 RMK AO2 SLP139 T02000078

More Conditions Fewer Conditions

Pressure 29.94 in
Visibility 10.0 miles
Clouds Few 15000 ft
Mostly Cloudy 25000 ft
Dew Point 52 °F
Humidity 53%
Rainfall in
Snow Depth Not available.
UV 0 out of 12
Pollen 11.40 out of 12
Air Quality Not available.
Flu Activity Local Activity
METAR KIND 190054Z 11007KT 10SM FEW150 BKN250 20/08 A2995 RMK AO2 SLP139 T02000078

More Conditions Fewer Conditions

10-Day Weather Forecast

Almanac

Astronomy

Apr. 18, 2015 Rise Set
Actual Time
Civil Twilight
Nautical Twilight
Astronomical Twilight
Moon
Length of Visible Light
Length of Day
Tomorrow will be .
, % of the Moon is Illuminated

Today's Extremes

State Highs State Lows

Community

WunderPhotos

Upload Photos

1,814,611 photos uploaded!

WunderBlogs® & News

Nearby

Air Quality

  Air Quality AQ Index Pollutant
Not available.

Snow Depth

Station Depth Elevation

Earthquake Activity

City Distance Mag. Time & Date
Minimum magnitude displayed is 2.5.

Coastal Water Temperatures

Place Temperature

Stations

Nearby Weather Stations

Station Location Temp. Windchill Dew Point Humidity Wind Precip. Elev Updated Type